Latest Coastal Weather Observations for Moruya Airport

IDN60701

Issued at 2:41 am EDT Tuesday 21 February 2017 (issued every 10 minutes, with the page automatically refreshed every 10 minutes)

About coastal observations | Map of coastal stations | Coastal observations for NSW | Marine services | Other Formats
Station Details ID: 069148 Name: MORUYA AIRPORT AWS Lat: -35.90 Lon: 150.14 Height: 4.0 m
Data from the previous 72 hours. | See also: Recent months at Moruya Airport
Date/Time
EDT
Temp
°C
Wind Pressure Rain since
9am
mm
Weather Cloud Vis
km
Sea
Height
m
Swell
Dir  Spd
kts
Gust
kts
hPa Trend Height
m
Period
s
Dir
21/02:30am 11.6 WSW 5 8 1017.4 - 0.0 - - 7 - - - -
21/02:00am 10.9 WSW 3 5 1017.3 - 0.0 - - 10 - - - -
21/01:30am 11.1 W 1 4 1017.3 - 0.0 - - 8 - - - -
21/01:00am 11.6 CALM 0 0 1017.5 - 0.0 - - 7 - - - -
21/12:30am 11.9 W 2 3 1017.5 - 0.0 - - 7 - - - -
21/12:00am 12.1 W 2 3 1017.3 - 0.0 - - 9 - - - -
 
Date/Time
EDT
Temp
°C
Wind Pressure Rain since
9am
mm
Weather Cloud Vis
km
Sea
Height
m
Swell
Dir  Spd
kts
Gust
kts
hPa Trend Height
m
Period
s
Dir
20/11:30pm 12.4 WSW 4 5 1017.0 - 0.0 - - 10 - - - -
20/11:00pm 12.4 WSW 2 4 1016.7 - 0.0 - - 9 - - - -
20/10:31pm 12.9 WSW 3 4 1016.4 - 0.0 - - 8 - - - -
20/10:30pm 12.8 WSW 3 4 1016.4 - 0.0 - - 9 - - - -
20/10:14pm 13.2 WNW 5 6 1016.2 - 0.0 - - 5 - - - -
20/10:00pm 13.1 W 4 5 1016.0 - 0.0 - - 7 - - - -
20/09:30pm 13.4 WSW 3 4 1015.4 - 0.0 - - 9 - - - -
20/09:00pm 13.8 WSW 2 4 1014.9 - 0.0 - - 7 - - - -
20/08:30pm 15.0 CALM 0 0 1014.4 - 0.0 - - 9 - - - -
20/08:00pm 16.4 NNW 1 4 1013.8 - 0.0 - - 10 - - - -
20/07:30pm 20.1 ENE 4 5 1013.0 - 0.0 - - 10 - - - -
20/07:00pm 21.3 E 6 8 1012.2 - 0.0 - - 10 - - - -
20/06:30pm 21.5 ENE 8 10 1011.6 - 0.0 - - 10 - - - -
20/06:00pm 21.9 ENE 9 12 1011.2 - 0.0 - - 10 - - - -
20/05:30pm 21.9 E 10 12 1010.7 - 0.0 - - 10 - - - -
20/05:00pm 21.7 E 10 13 1010.3 - 0.0 - - 10 - - - -
20/04:30pm 22.0 ESE 11 15 1010.0 - 0.0 - - 10 - - - -
20/04:00pm 21.9 ESE 11 16 1009.5 - 0.0 - - 10 - - - -
20/03:30pm 22.6 E 11 14 1009.2 - 0.0 - - 10 - - - -
20/03:00pm 23.1 ENE 13 15 1008.8 - 0.0 - - 10 - - - -
20/02:30pm 22.6 NE 15 18 1008.3 - 0.0 - - 10 - - - -
20/02:00pm 22.6 ENE 15 18 1008.3 - 0.0 - - 10 - - - -
20/01:30pm 22.6 ENE 12 14 1008.3 - 0.0 - - 10 - - - -
20/01:00pm 22.1 ENE 12 14 1008.4 - 0.0 - - 10 - - - -
20/12:30pm 21.6 ENE 11 13 1008.6 - 0.0 - - 10 - - - -
20/12:00pm 20.7 E 11 14 1008.7 - 0.0 - - 10 - - - -
20/11:30am 20.7 E 10 13 1008.8 - 0.0 - - 10 - - - -
20/11:00am 20.4 ENE 9 11 1008.9 - 0.0 - - 10 - - - -
20/10:30am 20.4 NW 5 8 1009.0 - 0.0 - - 10 - - - -
20/10:00am 19.3 NNW 5 11 1009.2 - 0.0 - - 10 - - - -
20/09:30am 18.8 NNW 5 7 1009.2 - 0.0 - - 9 - - - -
20/09:00am 17.4 WNW 5 6 1009.3 - 0.0 - - 10 - - - -
20/08:30am 16.3 WNW 5 7 1009.1 - 0.0 - - 8 - - - -
20/08:00am 13.2 NW 4 5 1009.0 - 0.0 - - 9 - - - -
20/07:30am 12.1 WNW 3 4 1008.9 - 0.0 - - 8 - - - -
20/07:04am 11.1 WNW 5 6 1008.7 - 0.0 - - 9 - - - -
20/07:00am 10.8 W 5 7 1008.6 - 0.0 - - 8 - - - -
20/06:45am 10.8 W 5 6 1008.5 - 0.0 - - 5 - - - -
20/06:30am 10.7 W 5 6 1008.3 - 0.0 - - 8 - - - -
20/06:00am 12.0 SW 7 8 1007.8 - 0.0 - - 10 - - - -
20/05:30am 11.9 WSW 5 7 1007.5 - 0.0 - - 7 - - - -
20/05:27am 11.7 WSW 5 7 1007.5 - 0.0 - - 8 - - - -
20/05:12am 12.3 WNW 3 6 1007.4 - 0.0 - - 5 - - - -
20/05:07am 12.3 WNW 4 6 1007.4 - 0.0 - - 7 - - - -
20/05:00am 12.5 WSW 5 7 1007.4 - 0.0 - - 7 - - - -
20/04:55am 12.7 W 5 7 1007.4 - 0.0 - Partly cloudy 5 - - - -
20/04:30am 13.0 WSW 6 7 1007.2 - 0.0 - Partly cloudy 7 - - - -
20/04:18am 12.8 NW 4 5 1006.8 - 0.0 - - 9 - - - -
20/04:00am 13.5 CALM 0 0 1006.6 - 0.0 - - 4 - - - -
20/03:59am 13.1 CALM 0 0 1006.6 - 0.0 - - 5 - - - -
20/03:30am 14.6 WSW 6 8 1007.0 - 0.0 - - 10 - - - -
20/03:02am 15.5 SSW 7 9 1006.9 - 0.0 - - 8 - - - -
20/03:00am 15.6 SSW 7 9 1006.9 - 0.0 - - 6 - - - -
20/02:52am 15.9 SSW 8 11 1006.6 - 0.0 - - 5 - - - -
20/02:50am 15.9 SSW 8 11 1006.6 - 0.0 - - 7 - - - -
20/02:38am 15.8 S 9 12 1006.6 - 0.0 - - 5 - - - -
20/02:30am 15.9 S 10 14 1006.6 - 0.0 - - 8 - - - -
20/02:00am 14.1 SW 7 11 1006.6 - 0.0 - - 10 - - - -
20/01:30am 13.4 NW 5 7 1006.0 - 0.0 - - 10 - - - -
20/01:00am 13.5 WNW 4 5 1006.2 - 0.0 - - 9 - - - -
20/12:30am 15.4 W 4 6 1006.3 - 0.0 - - 7 - - - -
20/12:16am 15.9 WSW 5 7 1006.2 - 0.0 - - 9 - - - -
20/12:00am 16.2 W 5 7 1006.2 - 0.0 - - 5 - - - -
 
Date/Time
EDT
Temp
°C
Wind Pressure Rain since
9am
mm
Weather Cloud Vis
km
Sea
Height
m
Swell
Dir  Spd
kts
Gust
kts
hPa Trend Height
m
Period
s
Dir
19/11:30pm 16.7 W 5 8 1006.1 - 0.0 - - 9 - - - -
19/11:00pm 17.2 W 5 8 1005.7 - 0.0 - - 9 - - - -
19/10:30pm 17.5 W 6 9 1005.6 - 0.0 - - 9 - - - -
19/10:00pm 17.3 WNW 5 6 1005.9 - 0.0 - - 7 - - - -
19/09:30pm 17.8 NW 6 7 1006.0 - 0.0 - - 8 - - - -
19/09:00pm 19.7 NNW 5 8 1005.9 - 0.0 - - 7 - - - -
19/08:30pm 21.2 NE 7 11 1006.0 - 0.0 - Partly cloudy 10 - - - -
19/08:00pm 21.4 NE 9 11 1005.9 - 0.0 - Partly cloudy 10 - - - -
19/07:30pm 21.3 NE 7 10 1005.5 - 0.0 - Partly cloudy 10 - - - -
19/07:00pm 21.3 NE 8 10 1005.1 - 0.0 - Cloudy 10 - - - -
19/06:30pm 21.5 NE 8 11 1004.9 - 0.0 - Cloudy 10 - - - -
19/06:00pm 21.6 NE 8 10 1004.9 - 0.0 - Mostly clear 10 - - - -
19/05:30pm 22.0 NE 10 13 1005.0 - 0.0 - - 10 - - - -
19/05:00pm 21.1 NE 10 13 1005.1 - 0.0 - Partly cloudy 10 - - - -
19/04:30pm 22.3 ENE 11 15 1005.2 - 0.0 - Partly cloudy 10 - - - -
19/04:00pm 22.7 ENE 12 15 1005.7 - 0.0 - - 10 - - - -
19/03:30pm 22.1 ENE 12 15 1006.1 - 0.0 - - 10 - - - -
19/03:00pm 21.8 E 11 15 1006.4 - 0.0 - Mostly clear 10 - - - -
19/02:30pm 21.6 E 10 13 1006.7 - 0.0 - - 10 - - - -
19/02:00pm 20.9 ESE 10 14 1006.8 - 0.0 - - 10 - - - -
19/01:30pm 21.8 ESE 10 14 1007.2 - 0.0 - - 10 - - - -
19/01:00pm 21.1 E 10 13 1007.4 - 0.0 - - 10 - - - -
19/12:30pm 20.5 E 9 11 1007.9 - 0.0 - - 10 - - - -
19/12:00pm 20.3 E 9 11 1008.3 - 0.0 - Mostly clear 10 - - - -
19/11:30am 20.5 E 8 11 1008.6 - 0.0 - Partly cloudy 10 - - - -
19/11:00am 20.7 SSE 6 8 1008.9 - 0.0 - - 10 - - - -
19/10:30am 20.3 SSE 5 8 1009.2 - 0.0 - - 10 - - - -
19/10:00am 19.5 W 5 8 1009.6 - 0.0 - - 10 - - - -
19/09:30am 19.0 WSW 7 9 1009.8 - 0.0 - - 10 - - - -
19/09:00am 18.1 WSW 6 8 1009.9 - 3.8 - - 10 - - - -
19/08:30am 17.4 WSW 7 9 1010.0 - 3.8 - - 9 - - - -
19/08:00am 16.4 WSW 7 9 1009.8 - 3.8 - - 10 - - - -
19/07:30am 15.9 WSW 6 10 1010.0 - 3.8 - Partly cloudy 10 - - - -
19/07:00am 15.1 WSW 6 9 1010.0 - 3.8 - Cloudy 10 - - - -
19/06:30am 14.8 WSW 6 8 1009.8 - 3.8 - Cloudy 9 - - - -
19/06:00am 14.7 WSW 5 7 1009.5 - 3.8 - Mostly cloudy 10 - - - -
19/05:30am 14.8 WSW 6 8 1009.5 - 3.8 - Cloudy 9 - - - -
19/05:00am 14.9 WSW 6 8 1009.4 - 3.8 - Partly cloudy 10 - - - -
19/04:30am 14.9 WSW 5 6 1009.2 - 3.8 - Cloudy 8 - - - -
19/04:00am 15.0 WSW 6 9 1009.0 - 3.8 - Cloudy 10 - - - -
19/03:30am 15.0 SW 7 9 1008.9 - 3.8 - Cloudy 10 - - - -
19/03:00am 15.2 SW 5 7 1009.3 - 3.8 - Cloudy 10 - - - -
19/02:30am 15.3 SW 6 8 1009.0 - 3.8 - Cloudy 10 - - - -
19/02:00am 15.3 SW 6 8 1009.1 - 3.8 - Cloudy 7 - - - -
19/01:30am 15.5 SW 8 13 1009.4 - 3.8 - Cloudy 9 - - - -
19/01:00am 16.0 S 10 13 1009.9 - 3.8 - Cloudy 10 - - - -
19/12:30am 15.9 SSW 9 15 1009.8 - 3.8 - Cloudy 10 - - - -
19/12:00am 15.9 SW 11 15 1009.9 - 3.8 - Cloudy 7 - - - -
 
Date/Time
EDT
Temp
°C
Wind Pressure Rain since
9am
mm
Weather Cloud Vis
km
Sea
Height
m
Swell
Dir  Spd
kts
Gust
kts
hPa Trend Height
m
Period
s
Dir
18/11:30pm 15.9 SW 8 13 1010.0 - 3.8 - Partly cloudy 10 - - - -
18/11:00pm 16.2 SW 8 10 1009.9 - 3.8 - Partly cloudy 10 - - - -
18/10:30pm 16.4 SW 7 9 1009.6 - 3.8 - Cloudy 10 - - - -
18/10:00pm 16.8 SSW 9 13 1009.3 - 3.8 - Partly cloudy 10 - - - -
18/09:30pm 17.1 SSW 11 15 1008.9 - 3.8 - Partly cloudy 10 - - - -
18/09:00pm 17.8 S 13 17 1008.6 - 3.8 - Cloudy 10 - - - -
18/08:30pm 18.0 S 13 17 1008.3 - 3.8 - Partly cloudy 10 - - - -
18/08:03pm 18.3 S 14 21 1007.9 - 3.8 - Cloudy 10 - - - -
18/08:00pm 18.3 S 14 21 1007.8 - 3.8 - Cloudy 10 - - - -
18/07:49pm 18.5 S 14 20 1007.4 - 3.8 - Cloudy 5 - - - -
18/07:30pm 18.6 S 13 18 1007.6 - 3.8 - Partly cloudy 6 - - - -
18/07:00pm 19.4 SSE 11 16 1006.8 - 3.8 - Partly cloudy 10 - - - -
18/06:30pm 20.2 SSE 8 10 1006.1 - 3.8 - Partly cloudy 10 - - - -
18/06:00pm 20.2 SSE 8 11 1006.3 - 3.6 Recent precip. Mostly clear 10 - - - -
18/05:30pm 20.5 SSE 7 11 1005.9 - 3.6 - Partly cloudy 10 - - - -
18/05:00pm 19.8 S 8 11 1006.1 - 3.4 - Partly cloudy 8 - - - -
18/04:30pm 19.5 SSE 6 9 1004.8 - 3.4 - Partly cloudy 10 - - - -
18/04:00pm 19.2 S 7 10 1004.9 - 3.4 - Partly cloudy 10 - - - -
18/03:30pm 19.0 S 5 7 1005.9 - 3.4 - Partly cloudy 10 - - - -
18/03:00pm 19.0 WNW 5 8 1007.0 - 2.0 Rain Cloudy 10 - - - -
18/02:47pm 19.1 NNE 2 8 1007.0 - 1.8 - Partly cloudy 10 - - - -
18/02:34pm 19.4 SSE 3 6 1006.8 - 1.4 - Partly cloudy 5 - - - -
18/02:30pm 19.7 S 4 7 1007.1 - 1.0 - Partly cloudy 6 - - - -
18/02:00pm 20.4 S 6 8 1007.1 - 0.4 - Partly cloudy 10 - - - -
18/01:30pm 20.5 S 7 9 1007.2 - 0.4 - Partly cloudy 8 - - - -
18/01:00pm 20.6 SSW 7 12 1007.3 - 0.4 - Partly cloudy 10 - - - -
18/12:30pm 20.2 SSW 7 11 1007.4 - 0.4 - Partly cloudy 8 - - - -
18/12:17pm 20.0 S 7 11 1007.5 - 0.4 - Partly cloudy 10 - - - -
18/12:00pm 19.8 S 5 6 1007.7 - 0.4 Recent precip. Partly cloudy 5 - - - -
18/11:59am 19.5 SSE 5 6 1007.7 - 0.4 - Partly cloudy 5 - - - -
18/11:30am 19.6 SSE 2 6 1008.2 - 0.4 - Partly cloudy 10 - - - -
18/11:00am 20.3 SSW 7 9 1008.4 - 0.0 - Partly cloudy 10 - - - -
18/10:30am 20.2 SW 7 9 1008.0 - 0.0 - Partly cloudy 9 - - - -
18/10:00am 19.9 SW 7 9 1007.7 - 0.0 - Cloudy 10 - - - -
18/09:45am 19.3 SW 7 9 1007.7 - 0.0 - Cloudy 10 - - - -
18/09:30am 18.9 WSW 7 10 1007.6 - 0.0 - Cloudy 4 - - - -
18/09:24am 18.8 WSW 7 10 1007.7 - 0.0 - Cloudy 5 - - - -
18/09:00am 18.7 SW 7 9 1007.2 - 0.0 - Mostly cloudy 7 - - - -
18/08:30am 18.8 SSW 4 6 1007.9 - 0.0 - Partly cloudy 7 - - - -
18/08:20am 18.8 WSW 5 8 1008.6 - 0.0 - Partly cloudy 5 - - - -
18/08:00am 18.9 WSW 6 8 1008.4 - 0.0 - Cloudy 9 - - - -
18/07:30am 19.0 SW 5 8 1007.5 - 0.0 - Partly cloudy 8 - - - -
18/07:00am 18.8 WSW 5 6 1007.1 - 0.0 - Cloudy 8 - - - -
18/06:35am 18.8 W 3 6 1006.6 - 0.0 - Partly cloudy 7 - - - -
18/06:30am 18.8 W 3 6 1006.7 - 0.0 - Partly cloudy 7 - - - -
18/06:00am 19.0 SW 5 7 1006.6 - 0.0 - Cloudy 8 - - - -
18/05:30am 19.3 SW 5 7 1006.5 - 0.0 - Cloudy 10 - - - -
18/05:00am 19.6 SW 6 8 1006.1 - 0.0 - Cloudy 8 - - - -
18/04:41am 19.8 SW 7 10 1006.5 - 0.0 - Cloudy 10 - - - -
18/04:35am 19.8 SSW 7 10 1006.5 - 0.0 - Partly cloudy 8 - - - -
18/04:30am 19.9 SSW 6 10 1006.2 - 0.0 - Cloudy 5 - - - -
18/04:28am 19.9 SSW 6 10 1006.3 - 0.0 - Cloudy 5 - - - -
18/04:00am 19.9 SSW 6 9 1006.4 - 0.0 - Cloudy 10 - - - -
18/03:30am 20.0 S 7 10 1006.4 - 0.0 - Cloudy 9 - - - -
18/03:00am 20.1 S 7 9 1006.3 - 0.0 - Mostly cloudy 8 - - - -

Other Formats:

Comma delimited format used in spreadsheet applications
http://www.bom.gov.au/fwo/IDN60701/IDN60701.95937.axf

JavaScript Object Notation format (JSON) in row-major order
http://www.bom.gov.au/fwo/IDN60701/IDN60701.95937.json